createdAt,value
2022-09-03T00:01:48.803Z,50.73
2022-09-03T00:04:34.931Z,50.90
2022-09-03T00:07:08.262Z,50.60
2022-09-03T00:09:42.192Z,50.70
2022-09-03T00:12:14.296Z,50.76
2022-09-03T00:14:46.095Z,51.07
2022-09-03T00:17:17.900Z,51.58
2022-09-03T00:19:54.832Z,51.99
2022-09-03T00:22:36.970Z,52.11
2022-09-03T00:25:07.333Z,51.89
2022-09-03T00:27:39.593Z,51.97
2022-09-03T00:30:11.208Z,52.16
2022-09-03T00:32:46.883Z,51.55
2022-09-03T00:35:23.929Z,51.78
2022-09-03T00:37:54.206Z,51.63
2022-09-03T00:40:48.925Z,51.75
2022-09-03T00:43:27.905Z,51.62
2022-09-03T00:45:54.645Z,51.84
2022-09-03T00:48:32.643Z,51.95
2022-09-03T00:51:14.779Z,52.09
2022-09-03T00:54:03.096Z,51.65
2022-09-03T00:56:51.558Z,51.79
2022-09-03T00:59:36.899Z,52.07
2022-09-03T01:02:14.376Z,52.08
2022-09-03T01:05:10.666Z,52.04
2022-09-03T01:08:03.798Z,52.66
2022-09-03T01:10:40.511Z,52.78
2022-09-03T01:13:42.779Z,52.26
2022-09-03T01:16:47.882Z,52.49
2022-09-03T01:19:52.247Z,52.75
2022-09-03T01:22:46.745Z,53.30
2022-09-03T01:25:32.289Z,53.16
2022-09-03T01:28:24.250Z,52.73
2022-09-03T01:31:20.393Z,53.64
2022-09-03T01:33:56.091Z,53.95
2022-09-03T01:36:47.170Z,54.15
2022-09-03T01:39:27.340Z,54.33
2022-09-03T01:42:14.425Z,54.84
2022-09-03T01:45:18.463Z,54.83
2022-09-03T01:48:03.901Z,54.68
2022-09-03T01:50:54.764Z,55.02
2022-09-03T01:53:52.509Z,55.49
2022-09-03T01:57:04.257Z,54.88
2022-09-03T01:59:37.790Z,54.59
2022-09-03T02:02:22.642Z,54.91
2022-09-03T02:05:17.940Z,54.61
2022-09-03T02:07:50.390Z,54.45
2022-09-03T02:10:25.248Z,54.64
2022-09-03T02:12:56.696Z,54.73
2022-09-03T02:15:25.763Z,54.81
2022-09-03T02:17:56.037Z,55.04
2022-09-03T02:20:27.162Z,55.22
2022-09-03T02:22:54.237Z,55.44
2022-09-03T02:25:23.491Z,55.60
2022-09-03T02:27:51.202Z,55.59
2022-09-03T02:30:17.875Z,56.54
2022-09-03T02:32:44.699Z,56.97
2022-09-03T02:35:11.319Z,56.70
2022-09-03T02:37:40.230Z,56.96
2022-09-03T02:40:07.931Z,57.51
2022-09-03T02:42:34.822Z,57.11
2022-09-03T02:45:13.731Z,57.19
2022-09-03T02:47:43.072Z,57.08
2022-09-03T02:50:09.717Z,56.86
2022-09-03T02:52:36.414Z,56.99
2022-09-03T02:55:03.123Z,56.58
2022-09-03T02:57:29.729Z,55.99
2022-09-03T02:59:56.337Z,56.26
2022-09-03T03:02:23.091Z,56.15
2022-09-03T03:04:49.784Z,55.88
2022-09-03T03:07:16.518Z,56.65
2022-09-03T03:09:43.087Z,57.72
2022-09-03T03:12:09.735Z,58.02
2022-09-03T03:14:36.370Z,57.36
2022-09-03T03:17:03.239Z,58.78
2022-09-03T03:19:29.826Z,58.55
2022-09-03T03:21:56.602Z,58.49
2022-09-03T03:24:23.175Z,58.51
2022-09-03T03:26:49.782Z,58.74
2022-09-03T03:29:17.561Z,58.16
2022-09-03T03:31:44.437Z,58.06
2022-09-03T03:34:11.008Z,58.40
2022-09-03T03:36:37.724Z,58.49
2022-09-03T03:39:04.358Z,58.09
2022-09-03T03:41:33.044Z,57.59
2022-09-03T03:44:05.472Z,58.24
2022-09-03T03:46:35.301Z,58.28
2022-09-03T03:49:02.019Z,57.65
2022-09-03T03:51:29.117Z,57.74
2022-09-03T03:53:56.894Z,57.45
2022-09-03T03:56:24.877Z,57.58
2022-09-03T03:58:52.022Z,57.51
2022-09-03T04:01:21.992Z,57.47
2022-09-03T04:03:49.165Z,58.43
2022-09-03T04:06:18.265Z,58.35
2022-09-03T04:08:47.142Z,58.73
2022-09-03T04:11:20.534Z,58.64
2022-09-03T04:13:48.219Z,58.97
2022-09-03T04:16:17.404Z,58.62
2022-09-03T04:18:44.114Z,58.36
2022-09-03T04:21:13.202Z,58.45
2022-09-03T04:23:42.355Z,58.79
2022-09-03T04:26:10.969Z,59.26
2022-09-03T04:28:38.002Z,58.99
2022-09-03T04:31:07.412Z,58.52
2022-09-03T04:33:35.076Z,58.65
2022-09-03T04:36:08.635Z,57.99
2022-09-03T04:38:37.591Z,58.14
2022-09-03T04:41:06.299Z,58.66
2022-09-03T04:43:32.962Z,58.72
2022-09-03T04:46:01.395Z,59.40
2022-09-03T04:48:29.126Z,60.00
2022-09-03T04:51:01.537Z,60.64
2022-09-03T04:53:28.243Z,61.16
2022-09-03T04:55:54.840Z,61.30
2022-09-03T04:58:21.498Z,61.20
2022-09-03T05:00:48.318Z,60.36
2022-09-03T05:03:15.059Z,61.06
2022-09-03T05:05:41.679Z,62.69
2022-09-03T05:08:08.433Z,62.21
2022-09-03T05:10:35.131Z,62.59
2022-09-03T05:13:04.073Z,63.39
2022-09-03T05:15:32.633Z,63.05
2022-09-03T05:18:00.584Z,63.07
2022-09-03T05:20:28.329Z,63.32
2022-09-03T05:22:55.077Z,62.72
2022-09-03T05:25:21.773Z,61.99
2022-09-03T05:27:48.732Z,61.45
2022-09-03T05:30:16.173Z,61.07
2022-09-03T05:32:42.886Z,60.91
2022-09-03T05:35:09.900Z,60.79
2022-09-03T05:37:37.360Z,61.05
2022-09-03T05:40:04.529Z,61.28
2022-09-03T05:42:31.267Z,61.77
2022-09-03T05:44:58.140Z,61.95
2022-09-03T05:47:24.848Z,62.09
2022-09-03T05:49:51.511Z,62.60
2022-09-03T05:52:18.369Z,62.28
2022-09-03T05:54:44.926Z,62.04
2022-09-03T05:57:11.616Z,62.36
2022-09-03T05:59:38.352Z,61.49
2022-09-03T06:02:05.063Z,61.06
2022-09-03T06:04:31.715Z,60.46
2022-09-03T06:07:00.072Z,59.41
2022-09-03T06:09:26.703Z,58.37
2022-09-03T06:11:53.561Z,58.09
2022-09-03T06:17:11.293Z,57.45
2022-09-03T06:19:38.302Z,56.90
2022-09-03T06:22:04.965Z,56.03
2022-09-03T06:24:31.573Z,55.55
2022-09-03T06:26:59.690Z,55.04
2022-09-03T06:29:26.343Z,53.86
2022-09-03T06:31:53.104Z,54.09
2022-09-03T06:34:19.926Z,53.40
2022-09-03T06:36:46.564Z,52.44
2022-09-03T06:39:13.268Z,52.04
2022-09-03T06:41:39.934Z,51.97
2022-09-03T06:44:08.510Z,51.76
2022-09-03T06:46:36.522Z,51.52
2022-09-03T06:49:03.243Z,51.17
2022-09-03T06:51:32.055Z,52.73
2022-09-03T06:54:05.082Z,51.59
2022-09-03T06:56:34.948Z,51.60
2022-09-03T06:59:15.439Z,52.25
2022-09-03T07:01:45.408Z,52.50
2022-09-03T07:04:14.734Z,52.88
2022-09-03T07:06:42.090Z,52.74
2022-09-03T07:09:10.509Z,52.90
2022-09-03T07:11:38.005Z,52.65
2022-09-03T07:14:07.007Z,52.98
2022-09-03T07:16:37.355Z,52.07
2022-09-03T07:19:08.007Z,51.91
2022-09-03T07:21:36.059Z,52.50
2022-09-03T07:24:03.947Z,52.51
2022-09-03T07:26:32.702Z,52.94
2022-09-03T07:28:59.966Z,53.10
2022-09-03T07:31:34.959Z,53.03
2022-09-03T07:34:04.416Z,53.05
2022-09-03T07:36:45.227Z,52.08
2022-09-03T07:39:13.561Z,52.21
2022-09-03T07:41:41.646Z,52.04
2022-09-03T07:44:09.175Z,51.52
2022-09-03T07:46:37.933Z,51.80
2022-09-03T07:49:05.401Z,52.09
2022-09-03T07:51:34.472Z,51.60
2022-09-03T07:54:02.666Z,51.13
2022-09-03T07:56:29.659Z,51.75
2022-09-03T07:58:57.056Z,51.64
2022-09-03T08:01:26.251Z,51.26
2022-09-03T08:03:53.715Z,51.17
2022-09-03T08:06:23.084Z,51.50
2022-09-03T08:08:55.510Z,50.45
2022-09-03T08:11:22.130Z,50.93
2022-09-03T08:13:58.109Z,50.99
2022-09-03T08:16:24.900Z,50.34
2022-09-03T08:18:51.508Z,50.24
2022-09-03T08:21:19.530Z,48.88
2022-09-03T08:23:48.688Z,48.57
2022-09-03T08:26:17.390Z,49.43
2022-09-03T08:28:45.025Z,48.95
2022-09-03T08:31:18.176Z,48.19
2022-09-03T08:33:51.789Z,47.94
2022-09-03T08:36:24.129Z,47.66
2022-09-03T08:38:51.938Z,47.51
2022-09-03T08:41:42.913Z,46.20
2022-09-03T08:44:21.936Z,45.57
2022-09-03T08:47:39.142Z,46.19
2022-09-03T08:50:27.219Z,46.07
2022-09-03T08:53:07.081Z,46.06
2022-09-03T08:55:36.578Z,46.31
2022-09-03T08:58:11.712Z,45.27
2022-09-03T09:00:51.528Z,44.22
2022-09-03T09:03:33.602Z,43.40
2022-09-03T09:06:12.517Z,43.91
2022-09-03T09:08:57.071Z,43.95
2022-09-03T09:11:38.998Z,43.17
2022-09-03T09:14:52.234Z,42.67
2022-09-03T09:17:18.833Z,41.51
2022-09-03T09:19:45.343Z,40.84
2022-09-03T09:22:25.482Z,40.75
2022-09-03T09:24:53.759Z,41.03
2022-09-03T09:27:20.303Z,41.81
2022-09-03T09:29:49.753Z,42.42
2022-09-03T09:32:19.632Z,39.63
2022-09-03T09:34:52.069Z,39.39
2022-09-03T09:37:19.399Z,40.42
2022-09-03T09:40:00.498Z,39.66
2022-09-03T09:42:27.714Z,39.11
2022-09-03T09:44:54.290Z,40.06
2022-09-03T09:47:30.754Z,39.55
2022-09-03T09:49:59.693Z,38.26
2022-09-03T09:52:28.451Z,37.69
2022-09-03T09:55:07.977Z,36.43
2022-09-03T09:57:34.705Z,36.32
2022-09-03T10:00:13.552Z,35.52
2022-09-03T10:02:51.045Z,35.73
2022-09-03T10:05:29.521Z,35.85
2022-09-03T10:08:01.335Z,35.81
2022-09-03T10:10:29.781Z,35.37
2022-09-03T10:13:00.523Z,34.89
2022-09-03T10:15:32.451Z,35.06
2022-09-03T10:18:30.923Z,34.17
2022-09-03T10:21:12.619Z,34.80
2022-09-03T10:24:07.479Z,35.61
2022-09-03T10:26:36.688Z,35.01
2022-09-03T10:29:06.340Z,35.04
2022-09-03T10:32:08.492Z,35.04
2022-09-03T10:34:42.435Z,35.08
2022-09-03T10:37:43.422Z,35.13
2022-09-03T10:40:25.051Z,34.35
2022-09-03T10:43:08.178Z,35.86
2022-09-03T10:45:44.237Z,34.54
2022-09-03T10:48:24.124Z,33.60
2022-09-03T10:51:10.763Z,34.24
2022-09-03T10:53:53.578Z,33.92
2022-09-03T10:56:52.515Z,34.12
2022-09-03T10:59:50.406Z,34.34
2022-09-03T11:02:41.383Z,34.20
2022-09-03T11:05:17.128Z,35.67
2022-09-03T11:08:00.214Z,34.86
2022-09-03T11:10:50.167Z,34.99
2022-09-03T11:13:33.133Z,34.18
2022-09-03T11:16:19.198Z,33.95
2022-09-03T11:18:51.162Z,34.73
2022-09-03T11:21:26.385Z,33.02
2022-09-03T11:24:07.066Z,32.96
2022-09-03T11:26:37.556Z,32.75
2022-09-03T11:29:26.088Z,32.48
2022-09-03T11:32:31.305Z,32.94
2022-09-03T11:35:32.149Z,33.72
2022-09-03T11:38:21.688Z,33.06
2022-09-03T11:41:13.560Z,32.89
2022-09-03T11:43:41.338Z,34.09
2022-09-03T11:46:25.481Z,33.14
2022-09-03T11:49:32.629Z,33.10
2022-09-03T11:52:04.598Z,33.40
2022-09-03T11:54:44.322Z,33.87
2022-09-03T11:57:16.261Z,34.30
2022-09-03T11:59:44.270Z,34.35
2022-09-03T12:02:27.336Z,34.45
2022-09-03T12:05:17.836Z,34.28
2022-09-03T12:07:53.728Z,33.75
2022-09-03T12:10:30.733Z,34.41
2022-09-03T12:13:15.946Z,34.19
2022-09-03T12:15:51.737Z,34.05
2022-09-03T12:18:31.957Z,32.48
2022-09-03T12:20:58.608Z,33.64
2022-09-03T12:23:31.175Z,34.20
2022-09-03T12:26:05.090Z,33.37
2022-09-03T12:28:38.641Z,33.18
2022-09-03T12:31:15.859Z,34.76
2022-09-03T12:33:42.636Z,34.56
2022-09-03T12:36:10.170Z,35.05
2022-09-03T12:39:00.755Z,34.67
2022-09-03T12:41:27.992Z,33.85
2022-09-03T12:43:57.379Z,33.28
2022-09-03T12:46:34.316Z,33.48
2022-09-03T12:52:05.410Z,33.47
2022-09-03T12:54:37.215Z,34.11
2022-09-03T12:57:04.973Z,34.09
2022-09-03T12:59:36.776Z,34.77
2022-09-03T13:02:18.151Z,34.90
2022-09-03T13:04:46.492Z,35.35
2022-09-03T13:07:32.825Z,34.52
2022-09-03T13:10:07.003Z,34.44
2022-09-03T13:12:43.050Z,34.75
2022-09-03T13:15:17.336Z,34.91
2022-09-03T13:18:10.632Z,34.68
2022-09-03T13:20:53.689Z,34.89
2022-09-03T13:23:43.356Z,34.43
2022-09-03T13:26:28.852Z,34.53
2022-09-03T13:29:20.604Z,34.80
2022-09-03T13:31:55.087Z,34.47
2022-09-03T13:34:40.497Z,34.95
2022-09-03T13:37:23.471Z,34.75
2022-09-03T13:39:57.769Z,34.96
2022-09-03T13:42:35.759Z,34.30
2022-09-03T13:45:21.038Z,34.33
2022-09-03T13:48:17.243Z,35.37
2022-09-03T13:51:21.651Z,34.32
2022-09-03T13:54:06.195Z,34.25
2022-09-03T13:56:48.944Z,34.55
2022-09-03T13:59:25.733Z,34.33
2022-09-03T14:02:07.415Z,34.69
2022-09-03T14:04:55.176Z,35.21
2022-09-03T14:07:34.744Z,34.36
2022-09-03T14:10:21.913Z,34.85
2022-09-03T14:13:14.743Z,34.65
2022-09-03T14:15:49.788Z,35.05
2022-09-03T14:18:41.457Z,35.12
2022-09-03T14:21:21.232Z,34.73
2022-09-03T14:24:10.041Z,35.38
2022-09-03T14:26:40.099Z,34.98
2022-09-03T14:29:14.527Z,34.00
2022-09-03T14:32:18.993Z,34.53
2022-09-03T14:35:07.149Z,34.62
2022-09-03T14:37:48.843Z,35.42
2022-09-03T14:40:15.559Z,35.96
2022-09-03T14:43:02.752Z,35.86
2022-09-03T14:45:50.837Z,36.85
2022-09-03T14:48:23.538Z,37.98
2022-09-03T14:51:19.681Z,39.28
2022-09-03T14:54:14.558Z,40.31
2022-09-03T14:57:01.465Z,43.16
2022-09-03T14:59:40.339Z,42.98
2022-09-03T15:02:34.649Z,44.51
2022-09-03T15:05:12.090Z,47.37
2022-09-03T15:08:07.090Z,52.21
2022-09-03T15:10:56.795Z,53.77
2022-09-03T15:13:46.444Z,55.78
2022-09-03T15:16:22.385Z,57.29
2022-09-03T15:19:04.526Z,60.08
2022-09-03T15:21:31.084Z,59.86
2022-09-03T15:24:19.446Z,61.59
2022-09-03T15:27:06.001Z,61.66
2022-09-03T15:29:54.491Z,62.60
2022-09-03T15:32:50.427Z,61.61
2022-09-03T15:35:56.776Z,62.49
2022-09-03T15:38:50.391Z,61.25
2022-09-03T15:41:40.466Z,62.45
2022-09-03T15:44:19.526Z,61.41
2022-09-03T15:47:13.929Z,63.41
2022-09-03T15:49:55.196Z,63.98
2022-09-03T15:52:49.235Z,64.15
2022-09-03T15:55:30.966Z,63.25
2022-09-03T15:58:34.032Z,64.26
2022-09-03T16:01:04.224Z,66.23
2022-09-03T16:04:00.257Z,64.60
2022-09-03T16:06:52.221Z,64.90
2022-09-03T16:09:28.007Z,63.33
2022-09-03T16:12:06.341Z,61.73
2022-09-03T16:14:43.179Z,61.09
2022-09-03T16:17:56.533Z,63.28
2022-09-03T16:20:39.994Z,62.64
2022-09-03T16:23:15.527Z,62.70
2022-09-03T16:25:51.735Z,63.44
2022-09-03T16:28:29.961Z,63.71
2022-09-03T16:31:09.439Z,64.58
2022-09-03T16:34:28.977Z,64.49
2022-09-03T16:37:23.473Z,66.80
2022-09-03T16:40:04.065Z,65.46
2022-09-03T16:42:43.337Z,64.59
2022-09-03T16:45:24.649Z,66.38
2022-09-03T16:48:29.003Z,67.23
2022-09-03T16:51:05.882Z,69.07
2022-09-03T16:53:41.879Z,69.72
2022-09-03T16:56:33.210Z,70.80
2022-09-03T16:59:08.844Z,71.31
2022-09-03T17:01:35.596Z,70.24
2022-09-03T17:04:14.305Z,69.45
2022-09-03T17:06:59.323Z,69.17
2022-09-03T17:09:56.515Z,69.67
2022-09-03T17:13:03.037Z,71.45
2022-09-03T17:15:49.595Z,71.13
2022-09-03T17:18:49.883Z,69.44
2022-09-03T17:21:39.848Z,69.49
2022-09-03T17:24:31.323Z,68.61
2022-09-03T17:27:15.118Z,68.79
2022-09-03T17:30:04.281Z,68.36
2022-09-03T17:32:43.112Z,70.76
2022-09-03T17:35:20.578Z,70.32
2022-09-03T17:38:00.056Z,70.24
2022-09-03T17:41:24.154Z,67.59
2022-09-03T17:44:03.498Z,68.31
2022-09-03T17:46:39.139Z,65.33
2022-09-03T17:49:18.059Z,61.35
2022-09-03T17:51:58.967Z,60.48
2022-09-03T17:54:37.567Z,61.90
2022-09-03T17:57:17.986Z,62.23
2022-09-03T17:59:53.781Z,62.35
2022-09-03T18:02:42.172Z,61.88
2022-09-03T18:05:29.075Z,63.38
2022-09-03T18:08:08.051Z,62.58
2022-09-03T18:10:56.558Z,61.65
2022-09-03T18:14:00.831Z,62.68
2022-09-03T18:16:30.147Z,62.56
2022-09-03T18:19:06.440Z,62.02
2022-09-03T18:21:38.852Z,62.12
2022-09-03T18:24:32.285Z,61.93
2022-09-03T18:27:01.971Z,61.23
2022-09-03T18:29:42.522Z,62.64
2022-09-03T18:32:09.288Z,63.05
2022-09-03T18:34:37.008Z,62.67
2022-09-03T18:37:03.914Z,63.00
2022-09-03T18:39:30.875Z,63.59
2022-09-03T18:42:09.592Z,63.68
2022-09-03T18:45:01.754Z,63.29
2022-09-03T18:48:18.225Z,63.22
2022-09-03T18:51:11.646Z,63.51
2022-09-03T18:53:44.178Z,63.80
2022-09-03T18:56:50.318Z,63.71
2022-09-03T18:59:58.194Z,63.28
2022-09-03T19:02:41.500Z,62.49
2022-09-03T19:05:17.069Z,62.91
2022-09-03T19:08:10.294Z,63.23
2022-09-03T19:10:49.198Z,63.35
2022-09-03T19:13:51.734Z,62.72
2022-09-03T19:16:27.397Z,62.46
2022-09-03T19:19:15.957Z,62.26
2022-09-03T19:21:59.708Z,62.64
2022-09-03T19:24:30.874Z,63.02
2022-09-03T19:30:28.019Z,63.94
2022-09-03T19:33:17.736Z,65.12
2022-09-03T19:35:53.379Z,65.22
2022-09-03T19:38:28.680Z,65.40
2022-09-03T19:41:04.171Z,65.64
2022-09-03T19:43:49.781Z,64.67
2022-09-03T19:46:57.605Z,65.07
2022-09-03T19:49:51.546Z,64.04
2022-09-03T19:52:27.520Z,63.56
2022-09-03T19:54:57.438Z,62.96
2022-09-03T19:57:26.100Z,63.16
2022-09-03T19:59:53.046Z,63.06
2022-09-03T20:02:19.662Z,63.52
2022-09-03T20:04:59.298Z,63.90
2022-09-03T20:07:26.846Z,63.83
2022-09-03T20:09:56.859Z,64.62
2022-09-03T20:12:27.929Z,64.24
2022-09-03T20:14:54.600Z,64.93
2022-09-03T20:17:57.398Z,64.11
2022-09-03T20:20:59.354Z,64.29
2022-09-03T20:23:45.714Z,64.41
2022-09-03T20:26:49.715Z,65.54
2022-09-03T20:29:34.911Z,66.56
2022-09-03T20:32:23.422Z,66.90
2022-09-03T20:34:50.300Z,67.35
2022-09-03T20:37:43.757Z,67.82
2022-09-03T20:40:38.427Z,67.50
2022-09-03T20:43:30.096Z,67.35
2022-09-03T20:45:56.968Z,67.05
2022-09-03T20:48:31.701Z,66.63
2022-09-03T20:51:04.254Z,66.09
2022-09-03T20:53:39.972Z,65.73
2022-09-03T20:56:23.753Z,65.59
2022-09-03T20:59:03.067Z,65.32
2022-09-03T21:01:57.758Z,64.91
2022-09-03T21:04:39.811Z,65.19
2022-09-03T21:07:27.227Z,65.22
2022-09-03T21:10:10.488Z,64.92
2022-09-03T21:13:10.863Z,64.35
2022-09-03T21:15:52.147Z,65.40
2022-09-03T21:18:34.594Z,65.08
2022-09-03T21:21:32.920Z,63.94
2022-09-03T21:24:13.087Z,64.29
2022-09-03T21:26:41.368Z,64.85
2022-09-03T21:29:21.429Z,64.85
2022-09-03T21:31:52.054Z,64.37
2022-09-03T21:34:30.468Z,64.08
2022-09-03T21:37:01.370Z,63.69
2022-09-03T21:39:36.784Z,63.63
2022-09-03T21:42:11.603Z,63.34
2022-09-03T21:44:50.356Z,63.28
2022-09-03T21:47:18.996Z,63.76
2022-09-03T21:49:59.177Z,63.08
2022-09-03T21:52:52.276Z,63.78
2022-09-03T21:55:57.354Z,63.69
2022-09-03T21:58:36.023Z,64.77
2022-09-03T22:01:18.849Z,65.25
2022-09-03T22:03:45.504Z,66.02
2022-09-03T22:06:44.655Z,66.27
2022-09-03T22:09:20.076Z,65.39
2022-09-03T22:12:07.029Z,64.53
2022-09-03T22:14:43.683Z,63.92
2022-09-03T22:17:17.548Z,64.60
2022-09-03T22:19:44.237Z,65.02
2022-09-03T22:22:24.910Z,65.75
2022-09-03T22:25:23.855Z,64.79
2022-09-03T22:27:55.296Z,65.07
2022-09-03T22:30:22.064Z,65.69
2022-09-03T22:33:27.437Z,66.38
2022-09-03T22:36:09.376Z,66.25
2022-09-03T22:38:58.200Z,67.25
2022-09-03T22:41:35.230Z,66.72
2022-09-03T22:44:10.980Z,66.71
2022-09-03T22:46:51.484Z,66.38
2022-09-03T22:49:21.119Z,67.49
2022-09-03T22:52:32.296Z,67.74
2022-09-03T22:55:01.876Z,67.49
2022-09-03T22:57:33.616Z,68.13
2022-09-03T23:00:04.728Z,67.57
2022-09-03T23:02:31.667Z,67.34
2022-09-03T23:05:04.323Z,67.34
2022-09-03T23:07:45.384Z,68.15
2022-09-03T23:10:25.547Z,67.98
2022-09-03T23:13:04.527Z,68.62
2022-09-03T23:15:34.129Z,68.24
2022-09-03T23:18:05.120Z,68.81
2022-09-03T23:20:35.774Z,68.97
2022-09-03T23:23:27.737Z,68.52
2022-09-03T23:26:05.513Z,69.11
2022-09-03T23:28:38.038Z,69.08
2022-09-03T23:31:19.189Z,69.69
2022-09-03T23:33:47.087Z,69.76
2022-09-03T23:36:53.122Z,70.01
2022-09-03T23:39:20.719Z,69.68
2022-09-03T23:42:04.083Z,70.08
2022-09-03T23:45:08.537Z,69.94
2022-09-03T23:47:54.267Z,69.41
2022-09-03T23:50:47.741Z,69.90
2022-09-03T23:53:27.178Z,70.94
2022-09-03T23:56:05.971Z,70.92
2022-09-03T23:59:01.851Z,70.46
